Grove City, Florida
Current Conditions -  °F | °C
As of 6:53 PM on Wednesday 22 Oct 2014 (Local Time) from KPGD Reporting Station
Clear Clear  
Wind Chill: 79°   Ceiling: Unl
Heat Index: 82°   Visibility: 10mi
Dew Point: 71°   Wind: 5mph
Humidity: 77%   Direction: 60°ENE
Pressure: 29.94"   Gusts: NA
Location:  26.9253°N, 82.3009°W
Report Text: KPGD 222253Z AUTO 06004KT 10SM CLR 26/22 A2994 RMK AO2 SLP138 T02610217
Loading
Personal Weather Stations






























Interactive Weather Map
Tropical Storm Tracking
New forecast layout! Learn more

10-Day Weather Forecast

Advertisements
Track Severe Weather on mobile